sensor_id;sensor_type;location;lat;lon;timestamp;P1;durP1;ratioP1;P2;durP2;ratioP2
56039;SDS011;43937;41.366;2.072;2023-06-24T00:02:16;44.63;;;30.23;;
56039;SDS011;43937;41.366;2.072;2023-06-24T00:04:41;44.95;;;26.52;;
56039;SDS011;43937;41.366;2.072;2023-06-24T00:07:07;40.83;;;25.38;;
56039;SDS011;43937;41.366;2.072;2023-06-24T00:09:32;35.47;;;20.52;;
56039;SDS011;43937;41.366;2.072;2023-06-24T00:11:58;33.13;;;19.92;;
56039;SDS011;43937;41.366;2.072;2023-06-24T00:14:25;33.33;;;19.70;;
56039;SDS011;43937;41.366;2.072;2023-06-24T00:16:51;33.95;;;17.85;;
56039;SDS011;43937;41.366;2.072;2023-06-24T00:19:21;32.60;;;17.20;;
56039;SDS011;43937;41.366;2.072;2023-06-24T00:21:48;34.45;;;18.08;;
56039;SDS011;43937;41.366;2.072;2023-06-24T00:24:18;24.27;;;15.85;;
56039;SDS011;43937;41.366;2.072;2023-06-24T00:26:51;26.33;;;15.80;;
56039;SDS011;43937;41.366;2.072;2023-06-24T00:29:17;20.85;;;13.48;;
56039;SDS011;43937;41.366;2.072;2023-06-24T00:31:43;26.63;;;15.05;;
56039;SDS011;43937;41.366;2.072;2023-06-24T00:34:08;35.92;;;19.67;;
56039;SDS011;43937;41.366;2.072;2023-06-24T00:36:33;46.45;;;20.90;;
56039;SDS011;43937;41.366;2.072;2023-06-24T00:39:02;33.25;;;22.85;;
56039;SDS011;43937;41.366;2.072;2023-06-24T00:41:29;31.25;;;21.13;;
56039;SDS011;43937;41.366;2.072;2023-06-24T00:43:55;33.05;;;21.40;;
56039;SDS011;43937;41.366;2.072;2023-06-24T00:46:22;30.65;;;20.67;;
56039;SDS011;43937;41.366;2.072;2023-06-24T00:48:50;28.90;;;20.48;;
56039;SDS011;43937;41.366;2.072;2023-06-24T00:51:20;27.35;;;19.67;;
56039;SDS011;43937;41.366;2.072;2023-06-24T00:53:46;28.92;;;17.35;;
56039;SDS011;43937;41.366;2.072;2023-06-24T00:56:13;28.27;;;20.60;;
56039;SDS011;43937;41.366;2.072;2023-06-24T00:58:39;36.28;;;23.05;;
56039;SDS011;43937;41.366;2.072;2023-06-24T01:01:06;29.23;;;19.05;;
56039;SDS011;43937;41.366;2.072;2023-06-24T01:03:33;36.63;;;19.85;;
56039;SDS011;43937;41.366;2.072;2023-06-24T01:06:02;30.23;;;19.88;;
56039;SDS011;43937;41.366;2.072;2023-06-24T01:08:28;32.08;;;19.55;;
56039;SDS011;43937;41.366;2.072;2023-06-24T01:10:53;27.42;;;18.08;;
56039;SDS011;43937;41.366;2.072;2023-06-24T01:13:19;26.48;;;15.85;;
56039;SDS011;43937;41.366;2.072;2023-06-24T01:15:45;24.48;;;16.10;;
56039;SDS011;43937;41.366;2.072;2023-06-24T01:18:13;20.42;;;14.05;;
56039;SDS011;43937;41.366;2.072;2023-06-24T01:20:45;21.10;;;13.23;;
56039;SDS011;43937;41.366;2.072;2023-06-24T01:37:37;31.50;;;18.70;;
56039;SDS011;43937;41.366;2.072;2023-06-24T01:39:48;28.13;;;17.45;;
56039;SDS011;43937;41.366;2.072;2023-06-24T01:42:19;26.83;;;17.00;;
56039;SDS011;43937;41.366;2.072;2023-06-24T01:44:47;28.00;;;17.42;;
56039;SDS011;43937;41.366;2.072;2023-06-24T01:47:18;31.98;;;17.83;;
56039;SDS011;43937;41.366;2.072;2023-06-24T01:52:14;26.33;;;17.55;;
56039;SDS011;43937;41.366;2.072;2023-06-24T01:54:41;25.73;;;17.30;;
56039;SDS011;43937;41.366;2.072;2023-06-24T01:57:08;30.67;;;17.95;;
56039;SDS011;43937;41.366;2.072;2023-06-24T01:59:38;27.58;;;18.77;;
56039;SDS011;43937;41.366;2.072;2023-06-24T02:02:07;34.17;;;19.15;;
56039;SDS011;43937;41.366;2.072;2023-06-24T02:04:33;29.05;;;18.95;;
56039;SDS011;43937;41.366;2.072;2023-06-24T02:07:01;27.50;;;18.48;;
56039;SDS011;43937;41.366;2.072;2023-06-24T02:09:28;29.52;;;18.15;;
56039;SDS011;43937;41.366;2.072;2023-06-24T02:11:56;28.00;;;17.95;;
56039;SDS011;43937;41.366;2.072;2023-06-24T02:14:23;30.83;;;18.77;;
56039;SDS011;43937;41.366;2.072;2023-06-24T02:16:51;26.13;;;18.13;;
56039;SDS011;43937;41.366;2.072;2023-06-24T02:19:21;23.58;;;15.90;;
56039;SDS011;43937;41.366;2.072;2023-06-24T02:21:49;25.30;;;16.90;;
56039;SDS011;43937;41.366;2.072;2023-06-24T02:24:17;26.33;;;16.35;;
56039;SDS011;43937;41.366;2.072;2023-06-24T02:26:44;28.55;;;15.93;;
56039;SDS011;43937;41.366;2.072;2023-06-24T02:29:12;21.60;;;16.00;;
56039;SDS011;43937;41.366;2.072;2023-06-24T02:31:39;22.95;;;15.55;;
56039;SDS011;43937;41.366;2.072;2023-06-24T02:34:05;26.10;;;14.57;;
56039;SDS011;43937;41.366;2.072;2023-06-24T02:36:30;24.15;;;15.73;;
56039;SDS011;43937;41.366;2.072;2023-06-24T02:38:56;22.83;;;16.33;;
56039;SDS011;43937;41.366;2.072;2023-06-24T02:41:22;27.58;;;16.85;;
56039;SDS011;43937;41.366;2.072;2023-06-24T02:43:47;26.70;;;16.98;;
56039;SDS011;43937;41.366;2.072;2023-06-24T02:46:12;27.55;;;15.57;;
56039;SDS011;43937;41.366;2.072;2023-06-24T02:48:40;20.73;;;15.60;;
56039;SDS011;43937;41.366;2.072;2023-06-24T02:51:07;27.70;;;15.73;;
56039;SDS011;43937;41.366;2.072;2023-06-24T02:53:35;21.90;;;14.23;;
56039;SDS011;43937;41.366;2.072;2023-06-24T02:56:29;21.40;;;13.70;;
56039;SDS011;43937;41.366;2.072;2023-06-24T02:58:55;20.95;;;13.80;;
56039;SDS011;43937;41.366;2.072;2023-06-24T03:01:21;22.42;;;13.05;;
56039;SDS011;43937;41.366;2.072;2023-06-24T03:03:55;24.77;;;13.55;;
56039;SDS011;43937;41.366;2.072;2023-06-24T03:06:21;21.05;;;12.73;;
56039;SDS011;43937;41.366;2.072;2023-06-24T03:08:49;22.50;;;13.48;;
56039;SDS011;43937;41.366;2.072;2023-06-24T03:11:15;21.00;;;12.23;;
56039;SDS011;43937;41.366;2.072;2023-06-24T03:13:41;18.40;;;11.63;;
56039;SDS011;43937;41.366;2.072;2023-06-24T03:16:08;18.73;;;11.52;;
56039;SDS011;43937;41.366;2.072;2023-06-24T03:20:36;15.80;;;10.75;;
56039;SDS011;43937;41.366;2.072;2023-06-24T03:23:05;16.38;;;9.95;;
56039;SDS011;43937;41.366;2.072;2023-06-24T03:25:31;15.40;;;10.43;;
56039;SDS011;43937;41.366;2.072;2023-06-24T03:27:57;15.95;;;10.07;;
56039;SDS011;43937;41.366;2.072;2023-06-24T03:30:22;20.15;;;10.65;;
56039;SDS011;43937;41.366;2.072;2023-06-24T03:32:48;15.95;;;10.32;;
56039;SDS011;43937;41.366;2.072;2023-06-24T03:35:13;14.02;;;10.15;;
56039;SDS011;43937;41.366;2.072;2023-06-24T03:37:39;16.95;;;10.07;;
56039;SDS011;43937;41.366;2.072;2023-06-24T03:40:05;14.95;;;9.52;;
56039;SDS011;43937;41.366;2.072;2023-06-24T03:42:31;18.65;;;9.90;;
56039;SDS011;43937;41.366;2.072;2023-06-24T03:44:57;13.60;;;9.32;;
56039;SDS011;43937;41.366;2.072;2023-06-24T03:47:22;12.68;;;8.45;;
56039;SDS011;43937;41.366;2.072;2023-06-24T03:49:47;17.10;;;8.43;;
56039;SDS011;43937;41.366;2.072;2023-06-24T03:52:13;13.05;;;8.75;;
56039;SDS011;43937;41.366;2.072;2023-06-24T03:54:38;15.63;;;8.77;;
56039;SDS011;43937;41.366;2.072;2023-06-24T03:57:05;12.90;;;8.25;;
56039;SDS011;43937;41.366;2.072;2023-06-24T03:59:32;16.75;;;8.48;;
56039;SDS011;43937;41.366;2.072;2023-06-24T04:01:58;14.07;;;8.20;;
56039;SDS011;43937;41.366;2.072;2023-06-24T04:04:23;13.63;;;8.15;;
56039;SDS011;43937;41.366;2.072;2023-06-24T04:06:48;14.48;;;8.75;;
56039;SDS011;43937;41.366;2.072;2023-06-24T04:09:14;14.82;;;9.85;;
56039;SDS011;43937;41.366;2.072;2023-06-24T04:11:39;15.45;;;10.07;;
56039;SDS011;43937;41.366;2.072;2023-06-24T04:14:05;21.77;;;12.38;;
56039;SDS011;43937;41.366;2.072;2023-06-24T04:17:03;28.52;;;13.82;;
56039;SDS011;43937;41.366;2.072;2023-06-24T04:19:28;22.45;;;12.63;;
56039;SDS011;43937;41.366;2.072;2023-06-24T04:21:54;20.77;;;13.75;;
56039;SDS011;43937;41.366;2.072;2023-06-24T04:24:19;25.30;;;13.43;;
56039;SDS011;43937;41.366;2.072;2023-06-24T04:26:45;19.83;;;13.13;;
56039;SDS011;43937;41.366;2.072;2023-06-24T04:29:10;20.13;;;13.40;;
56039;SDS011;43937;41.366;2.072;2023-06-24T04:31:36;30.20;;;15.82;;
56039;SDS011;43937;41.366;2.072;2023-06-24T04:34:01;26.35;;;15.85;;
56039;SDS011;43937;41.366;2.072;2023-06-24T04:36:27;28.23;;;16.67;;
56039;SDS011;43937;41.366;2.072;2023-06-24T04:38:52;24.52;;;15.98;;
56039;SDS011;43937;41.366;2.072;2023-06-24T04:41:17;25.45;;;14.57;;
56039;SDS011;43937;41.366;2.072;2023-06-24T04:43:44;22.60;;;12.60;;
56039;SDS011;43937;41.366;2.072;2023-06-24T04:46:09;18.40;;;11.95;;
56039;SDS011;43937;41.366;2.072;2023-06-24T04:48:35;17.33;;;11.10;;
56039;SDS011;43937;41.366;2.072;2023-06-24T04:51:00;20.17;;;11.30;;
56039;SDS011;43937;41.366;2.072;2023-06-24T04:55:37;16.15;;;10.05;;
56039;SDS011;43937;41.366;2.072;2023-06-24T04:58:03;15.38;;;10.10;;
56039;SDS011;43937;41.366;2.072;2023-06-24T05:00:28;15.00;;;9.98;;
56039;SDS011;43937;41.366;2.072;2023-06-24T05:02:54;15.45;;;10.07;;
56039;SDS011;43937;41.366;2.072;2023-06-24T05:05:19;14.35;;;9.32;;
56039;SDS011;43937;41.366;2.072;2023-06-24T05:07:45;11.40;;;8.63;;
56039;SDS011;43937;41.366;2.072;2023-06-24T05:10:11;13.57;;;8.38;;
56039;SDS011;43937;41.366;2.072;2023-06-24T05:12:36;12.95;;;8.93;;
56039;SDS011;43937;41.366;2.072;2023-06-24T05:15:02;14.93;;;8.85;;
56039;SDS011;43937;41.366;2.072;2023-06-24T05:17:27;16.95;;;8.20;;
56039;SDS011;43937;41.366;2.072;2023-06-24T05:19:53;16.60;;;8.43;;
56039;SDS011;43937;41.366;2.072;2023-06-24T05:22:18;13.48;;;7.28;;
56039;SDS011;43937;41.366;2.072;2023-06-24T05:24:54;12.85;;;7.22;;
56039;SDS011;43937;41.366;2.072;2023-06-24T05:27:20;10.00;;;7.18;;
56039;SDS011;43937;41.366;2.072;2023-06-24T05:29:45;10.00;;;6.90;;
56039;SDS011;43937;41.366;2.072;2023-06-24T05:32:11;14.50;;;6.68;;
56039;SDS011;43937;41.366;2.072;2023-06-24T05:34:36;12.05;;;6.07;;
56039;SDS011;43937;41.366;2.072;2023-06-24T05:37:02;9.48;;;5.25;;
56039;SDS011;43937;41.366;2.072;2023-06-24T05:39:27;12.60;;;6.07;;
56039;SDS011;43937;41.366;2.072;2023-06-24T05:41:53;14.75;;;6.95;;
56039;SDS011;43937;41.366;2.072;2023-06-24T05:44:18;17.10;;;7.70;;
56039;SDS011;43937;41.366;2.072;2023-06-24T05:46:44;15.50;;;7.55;;
56039;SDS011;43937;41.366;2.072;2023-06-24T05:49:10;16.23;;;8.93;;
56039;SDS011;43937;41.366;2.072;2023-06-24T05:51:36;13.63;;;8.57;;
56039;SDS011;43937;41.366;2.072;2023-06-24T05:54:01;14.45;;;8.50;;
56039;SDS011;43937;41.366;2.072;2023-06-24T05:56:27;15.55;;;9.32;;
56039;SDS011;43937;41.366;2.072;2023-06-24T05:58:52;15.82;;;10.60;;
56039;SDS011;43937;41.366;2.072;2023-06-24T06:01:18;18.08;;;11.32;;
56039;SDS011;43937;41.366;2.072;2023-06-24T06:03:43;20.10;;;11.55;;
56039;SDS011;43937;41.366;2.072;2023-06-24T06:06:09;21.48;;;11.90;;
56039;SDS011;43937;41.366;2.072;2023-06-24T06:08:35;18.05;;;11.30;;
56039;SDS011;43937;41.366;2.072;2023-06-24T06:11:00;20.75;;;11.50;;
56039;SDS011;43937;41.366;2.072;2023-06-24T06:13:29;18.98;;;10.20;;
56039;SDS011;43937;41.366;2.072;2023-06-24T06:15:55;15.88;;;9.82;;
56039;SDS011;43937;41.366;2.072;2023-06-24T06:18:21;21.42;;;10.50;;
56039;SDS011;43937;41.366;2.072;2023-06-24T06:20:46;19.17;;;10.55;;
56039;SDS011;43937;41.366;2.072;2023-06-24T06:23:12;15.13;;;10.65;;
56039;SDS011;43937;41.366;2.072;2023-06-24T06:25:37;19.58;;;10.93;;
56039;SDS011;43937;41.366;2.072;2023-06-24T06:28:03;14.15;;;10.93;;
56039;SDS011;43937;41.366;2.072;2023-06-24T06:30:29;22.25;;;11.50;;
56039;SDS011;43937;41.366;2.072;2023-06-24T06:32:54;19.60;;;11.27;;
56039;SDS011;43937;41.366;2.072;2023-06-24T06:35:19;18.00;;;11.95;;
56039;SDS011;43937;41.366;2.072;2023-06-24T06:37:45;20.30;;;12.23;;
56039;SDS011;43937;41.366;2.072;2023-06-24T06:40:12;17.17;;;11.75;;
56039;SDS011;43937;41.366;2.072;2023-06-24T06:42:38;13.85;;;11.15;;
56039;SDS011;43937;41.366;2.072;2023-06-24T06:45:04;22.27;;;12.07;;
56039;SDS011;43937;41.366;2.072;2023-06-24T06:47:29;23.23;;;18.48;;
56039;SDS011;43937;41.366;2.072;2023-06-24T06:49:55;19.13;;;11.43;;
56039;SDS011;43937;41.366;2.072;2023-06-24T06:52:20;19.65;;;10.88;;
56039;SDS011;43937;41.366;2.072;2023-06-24T06:54:46;14.82;;;10.73;;
56039;SDS011;43937;41.366;2.072;2023-06-24T06:57:11;17.63;;;10.05;;
56039;SDS011;43937;41.366;2.072;2023-06-24T06:59:37;25.45;;;9.25;;
56039;SDS011;43937;41.366;2.072;2023-06-24T07:02:02;14.32;;;9.07;;
56039;SDS011;43937;41.366;2.072;2023-06-24T07:04:28;12.63;;;7.93;;
56039;SDS011;43937;41.366;2.072;2023-06-24T07:06:53;10.02;;;7.90;;
56039;SDS011;43937;41.366;2.072;2023-06-24T07:09:19;13.02;;;8.13;;
56039;SDS011;43937;41.366;2.072;2023-06-24T07:11:44;15.98;;;7.95;;
56039;SDS011;43937;41.366;2.072;2023-06-24T07:14:10;14.80;;;7.80;;
56039;SDS011;43937;41.366;2.072;2023-06-24T07:16:35;11.90;;;7.50;;
56039;SDS011;43937;41.366;2.072;2023-06-24T07:19:01;12.38;;;7.72;;
56039;SDS011;43937;41.366;2.072;2023-06-24T07:21:26;14.15;;;8.00;;
56039;SDS011;43937;41.366;2.072;2023-06-24T07:25:52;10.25;;;7.80;;
56039;SDS011;43937;41.366;2.072;2023-06-24T07:28:17;15.15;;;7.88;;
56039;SDS011;43937;41.366;2.072;2023-06-24T07:30:43;12.38;;;7.80;;
56039;SDS011;43937;41.366;2.072;2023-06-24T07:33:09;12.13;;;8.73;;
56039;SDS011;43937;41.366;2.072;2023-06-24T07:35:34;15.05;;;8.13;;
56039;SDS011;43937;41.366;2.072;2023-06-24T07:38:00;12.13;;;7.90;;
56039;SDS011;43937;41.366;2.072;2023-06-24T07:40:26;12.93;;;8.50;;
56039;SDS011;43937;41.366;2.072;2023-06-24T07:42:51;11.50;;;7.50;;
56039;SDS011;43937;41.366;2.072;2023-06-24T07:45:17;18.00;;;8.07;;
56039;SDS011;43937;41.366;2.072;2023-06-24T07:47:43;16.95;;;8.68;;
56039;SDS011;43937;41.366;2.072;2023-06-24T07:50:09;14.05;;;7.60;;
56039;SDS011;43937;41.366;2.072;2023-06-24T07:53:43;10.40;;;7.20;;
56039;SDS011;43937;41.366;2.072;2023-06-24T07:56:09;13.13;;;7.40;;
56039;SDS011;43937;41.366;2.072;2023-06-24T07:58:35;11.32;;;6.60;;
56039;SDS011;43937;41.366;2.072;2023-06-24T08:01:03;14.35;;;7.00;;
56039;SDS011;43937;41.366;2.072;2023-06-24T08:03:29;11.48;;;6.95;;
56039;SDS011;43937;41.366;2.072;2023-06-24T08:05:54;9.10;;;6.70;;
56039;SDS011;43937;41.366;2.072;2023-06-24T08:08:21;15.45;;;6.20;;
56039;SDS011;43937;41.366;2.072;2023-06-24T08:10:47;9.55;;;6.63;;
56039;SDS011;43937;41.366;2.072;2023-06-24T08:13:13;10.45;;;6.25;;
56039;SDS011;43937;41.366;2.072;2023-06-24T08:18:04;12.68;;;6.45;;
56039;SDS011;43937;41.366;2.072;2023-06-24T08:20:29;22.17;;;7.90;;
56039;SDS011;43937;41.366;2.072;2023-06-24T08:22:54;10.20;;;7.00;;
56039;SDS011;43937;41.366;2.072;2023-06-24T08:25:20;7.57;;;6.40;;
56039;SDS011;43937;41.366;2.072;2023-06-24T08:27:45;14.27;;;6.38;;
56039;SDS011;43937;41.366;2.072;2023-06-24T08:30:12;12.10;;;6.35;;
56039;SDS011;43937;41.366;2.072;2023-06-24T08:32:39;8.52;;;6.03;;
56039;SDS011;43937;41.366;2.072;2023-06-24T08:35:05;8.80;;;7.03;;
56039;SDS011;43937;41.366;2.072;2023-06-24T08:37:32;9.60;;;6.22;;
56039;SDS011;43937;41.366;2.072;2023-06-24T08:39:57;9.10;;;6.55;;
56039;SDS011;43937;41.366;2.072;2023-06-24T08:42:23;9.32;;;6.50;;
56039;SDS011;43937;41.366;2.072;2023-06-24T08:44:49;9.48;;;6.45;;
56039;SDS011;43937;41.366;2.072;2023-06-24T08:47:14;14.57;;;6.15;;
56039;SDS011;43937;41.366;2.072;2023-06-24T08:49:46;8.75;;;6.30;;
56039;SDS011;43937;41.366;2.072;2023-06-24T08:52:15;16.85;;;12.18;;
56039;SDS011;43937;41.366;2.072;2023-06-24T08:54:42;14.27;;;10.07;;
56039;SDS011;43937;41.366;2.072;2023-06-24T08:57:11;12.32;;;6.60;;
56039;SDS011;43937;41.366;2.072;2023-06-24T08:59:40;16.67;;;6.25;;
56039;SDS011;43937;41.366;2.072;2023-06-24T09:02:06;9.65;;;4.43;;
56039;SDS011;43937;41.366;2.072;2023-06-24T09:04:32;13.15;;;4.88;;
56039;SDS011;43937;41.366;2.072;2023-06-24T09:06:58;8.05;;;4.05;;
56039;SDS011;43937;41.366;2.072;2023-06-24T09:09:23;14.40;;;4.55;;
56039;SDS011;43937;41.366;2.072;2023-06-24T09:11:56;7.07;;;4.13;;
56039;SDS011;43937;41.366;2.072;2023-06-24T09:15:47;8.88;;;4.32;;
56039;SDS011;43937;41.366;2.072;2023-06-24T09:18:16;10.23;;;4.30;;
56039;SDS011;43937;41.366;2.072;2023-06-24T09:20:42;8.63;;;4.20;;
56039;SDS011;43937;41.366;2.072;2023-06-24T09:23:10;12.50;;;4.90;;
56039;SDS011;43937;41.366;2.072;2023-06-24T09:25:36;7.13;;;4.00;;
56039;SDS011;43937;41.366;2.072;2023-06-24T09:28:02;11.38;;;3.80;;
56039;SDS011;43937;41.366;2.072;2023-06-24T09:30:29;9.52;;;4.55;;
56039;SDS011;43937;41.366;2.072;2023-06-24T09:32:55;8.65;;;4.38;;
56039;SDS011;43937;41.366;2.072;2023-06-24T09:35:24;11.13;;;4.45;;
56039;SDS011;43937;41.366;2.072;2023-06-24T09:37:54;7.80;;;4.32;;
56039;SDS011;43937;41.366;2.072;2023-06-24T09:40:21;9.38;;;4.18;;
56039;SDS011;43937;41.366;2.072;2023-06-24T09:42:51;11.25;;;4.28;;
56039;SDS011;43937;41.366;2.072;2023-06-24T09:45:24;16.92;;;7.57;;
56039;SDS011;43937;41.366;2.072;2023-06-24T09:47:52;14.30;;;5.07;;
56039;SDS011;43937;41.366;2.072;2023-06-24T09:50:18;12.43;;;4.95;;
56039;SDS011;43937;41.366;2.072;2023-06-24T09:52:44;8.18;;;5.00;;
56039;SDS011;43937;41.366;2.072;2023-06-24T09:55:12;11.60;;;4.90;;
56039;SDS011;43937;41.366;2.072;2023-06-24T09:57:39;11.73;;;4.57;;
56039;SDS011;43937;41.366;2.072;2023-06-24T10:00:09;6.50;;;4.60;;
56039;SDS011;43937;41.366;2.072;2023-06-24T10:02:35;10.00;;;4.97;;
56039;SDS011;43937;41.366;2.072;2023-06-24T10:05:02;10.05;;;4.50;;
56039;SDS011;43937;41.366;2.072;2023-06-24T10:07:29;9.48;;;5.50;;
56039;SDS011;43937;41.366;2.072;2023-06-24T10:09:56;11.70;;;5.10;;
56039;SDS011;43937;41.366;2.072;2023-06-24T10:12:22;8.82;;;4.72;;
56039;SDS011;43937;41.366;2.072;2023-06-24T10:14:51;13.27;;;4.38;;
56039;SDS011;43937;41.366;2.072;2023-06-24T10:17:17;23.60;;;5.60;;
56039;SDS011;43937;41.366;2.072;2023-06-24T10:19:42;25.75;;;5.80;;
56039;SDS011;43937;41.366;2.072;2023-06-24T10:22:10;17.10;;;6.18;;
56039;SDS011;43937;41.366;2.072;2023-06-24T10:24:37;18.35;;;4.55;;
56039;SDS011;43937;41.366;2.072;2023-06-24T10:27:20;12.38;;;5.60;;
56039;SDS011;43937;41.366;2.072;2023-06-24T10:29:47;17.20;;;6.10;;
56039;SDS011;43937;41.366;2.072;2023-06-24T10:32:14;13.30;;;5.68;;
56039;SDS011;43937;41.366;2.072;2023-06-24T10:34:41;12.00;;;4.93;;
56039;SDS011;43937;41.366;2.072;2023-06-24T10:39:46;15.70;;;5.75;;
56039;SDS011;43937;41.366;2.072;2023-06-24T10:44:57;12.45;;;5.20;;
56039;SDS011;43937;41.366;2.072;2023-06-24T10:47:24;11.73;;;5.00;;
56039;SDS011;43937;41.366;2.072;2023-06-24T10:49:52;10.30;;;5.43;;
56039;SDS011;43937;41.366;2.072;2023-06-24T10:52:18;10.45;;;4.47;;
56039;SDS011;43937;41.366;2.072;2023-06-24T10:54:46;8.25;;;4.18;;
56039;SDS011;43937;41.366;2.072;2023-06-24T10:57:12;7.43;;;3.90;;
56039;SDS011;43937;41.366;2.072;2023-06-24T10:59:41;10.88;;;6.05;;
56039;SDS011;43937;41.366;2.072;2023-06-24T11:02:12;10.85;;;5.13;;
56039;SDS011;43937;41.366;2.072;2023-06-24T11:04:45;9.75;;;4.57;;
56039;SDS011;43937;41.366;2.072;2023-06-24T11:07:18;9.07;;;4.78;;
56039;SDS011;43937;41.366;2.072;2023-06-24T11:10:04;6.03;;;3.72;;
56039;SDS011;43937;41.366;2.072;2023-06-24T11:12:31;7.55;;;4.47;;
56039;SDS011;43937;41.366;2.072;2023-06-24T11:15:04;6.32;;;3.92;;
56039;SDS011;43937;41.366;2.072;2023-06-24T11:17:32;11.65;;;4.40;;
56039;SDS011;43937;41.366;2.072;2023-06-24T11:19:58;10.30;;;4.13;;
56039;SDS011;43937;41.366;2.072;2023-06-24T11:22:24;8.50;;;4.45;;
56039;SDS011;43937;41.366;2.072;2023-06-24T11:24:50;9.15;;;4.82;;
56039;SDS011;43937;41.366;2.072;2023-06-24T11:27:23;10.93;;;4.75;;
56039;SDS011;43937;41.366;2.072;2023-06-24T11:29:53;6.45;;;4.10;;
56039;SDS011;43937;41.366;2.072;2023-06-24T11:32:20;7.25;;;4.40;;
56039;SDS011;43937;41.366;2.072;2023-06-24T11:34:46;7.03;;;4.15;;
56039;SDS011;43937;41.366;2.072;2023-06-24T11:37:13;6.38;;;4.35;;
56039;SDS011;43937;41.366;2.072;2023-06-24T11:39:43;8.75;;;4.25;;
56039;SDS011;43937;41.366;2.072;2023-06-24T11:42:25;5.78;;;3.85;;
56039;SDS011;43937;41.366;2.072;2023-06-24T11:44:52;9.38;;;4.50;;
56039;SDS011;43937;41.366;2.072;2023-06-24T11:47:23;6.93;;;4.70;;
56039;SDS011;43937;41.366;2.072;2023-06-24T11:49:52;8.32;;;4.88;;
56039;SDS011;43937;41.366;2.072;2023-06-24T11:53:05;10.95;;;4.82;;
56039;SDS011;43937;41.366;2.072;2023-06-24T11:55:17;10.20;;;4.47;;
56039;SDS011;43937;41.366;2.072;2023-06-24T12:00:14;10.32;;;5.22;;
56039;SDS011;43937;41.366;2.072;2023-06-24T12:02:40;7.43;;;4.10;;
56039;SDS011;43937;41.366;2.072;2023-06-24T12:05:06;8.15;;;4.30;;
56039;SDS011;43937;41.366;2.072;2023-06-24T12:07:31;7.35;;;4.68;;
56039;SDS011;43937;41.366;2.072;2023-06-24T12:09:57;8.20;;;4.60;;
56039;SDS011;43937;41.366;2.072;2023-06-24T12:12:22;14.85;;;4.97;;
56039;SDS011;43937;41.366;2.072;2023-06-24T12:14:48;9.40;;;4.53;;
56039;SDS011;43937;41.366;2.072;2023-06-24T12:17:13;7.55;;;4.88;;
56039;SDS011;43937;41.366;2.072;2023-06-24T12:19:39;11.95;;;4.68;;
56039;SDS011;43937;41.366;2.072;2023-06-24T12:22:04;7.68;;;4.70;;
56039;SDS011;43937;41.366;2.072;2023-06-24T12:24:29;7.47;;;4.60;;
56039;SDS011;43937;41.366;2.072;2023-06-24T12:26:55;12.30;;;5.35;;
56039;SDS011;43937;41.366;2.072;2023-06-24T12:29:21;8.27;;;4.65;;
56039;SDS011;43937;41.366;2.072;2023-06-24T12:31:47;13.38;;;5.07;;
56039;SDS011;43937;41.366;2.072;2023-06-24T12:34:12;7.65;;;4.53;;
56039;SDS011;43937;41.366;2.072;2023-06-24T12:36:38;8.32;;;4.80;;
56039;SDS011;43937;41.366;2.072;2023-06-24T12:39:03;10.88;;;4.60;;
56039;SDS011;43937;41.366;2.072;2023-06-24T12:41:29;8.10;;;4.18;;
56039;SDS011;43937;41.366;2.072;2023-06-24T12:43:54;8.35;;;4.35;;
56039;SDS011;43937;41.366;2.072;2023-06-24T12:46:19;14.60;;;5.10;;
56039;SDS011;43937;41.366;2.072;2023-06-24T12:48:45;6.85;;;4.70;;
56039;SDS011;43937;41.366;2.072;2023-06-24T12:51:10;7.22;;;4.47;;
56039;SDS011;43937;41.366;2.072;2023-06-24T12:53:36;13.98;;;4.70;;
56039;SDS011;43937;41.366;2.072;2023-06-24T12:56:02;10.13;;;5.22;;
56039;SDS011;43937;41.366;2.072;2023-06-24T12:58:27;6.85;;;3.65;;
56039;SDS011;43937;41.366;2.072;2023-06-24T13:00:53;9.85;;;4.13;;
56039;SDS011;43937;41.366;2.072;2023-06-24T13:03:18;6.65;;;4.20;;
56039;SDS011;43937;41.366;2.072;2023-06-24T13:05:44;8.82;;;4.53;;
56039;SDS011;43937;41.366;2.072;2023-06-24T13:08:09;8.73;;;4.72;;
56039;SDS011;43937;41.366;2.072;2023-06-24T13:10:36;8.55;;;4.40;;
56039;SDS011;43937;41.366;2.072;2023-06-24T13:13:03;7.78;;;4.03;;
56039;SDS011;43937;41.366;2.072;2023-06-24T13:15:29;11.38;;;4.50;;
56039;SDS011;43937;41.366;2.072;2023-06-24T13:17:54;6.90;;;3.70;;
56039;SDS011;43937;41.366;2.072;2023-06-24T13:20:20;7.68;;;4.78;;
56039;SDS011;43937;41.366;2.072;2023-06-24T13:22:45;8.57;;;4.82;;
56039;SDS011;43937;41.366;2.072;2023-06-24T13:25:11;10.48;;;4.88;;
56039;SDS011;43937;41.366;2.072;2023-06-24T13:27:36;5.93;;;4.50;;
56039;SDS011;43937;41.366;2.072;2023-06-24T13:30:02;8.02;;;4.30;;
56039;SDS011;43937;41.366;2.072;2023-06-24T13:32:29;6.38;;;4.32;;
56039;SDS011;43937;41.366;2.072;2023-06-24T13:34:54;6.05;;;4.38;;
56039;SDS011;43937;41.366;2.072;2023-06-24T13:37:20;6.32;;;5.00;;
56039;SDS011;43937;41.366;2.072;2023-06-24T13:39:45;6.25;;;4.03;;
56039;SDS011;43937;41.366;2.072;2023-06-24T13:42:12;6.10;;;4.28;;
56039;SDS011;43937;41.366;2.072;2023-06-24T13:44:38;7.00;;;4.35;;
56039;SDS011;43937;41.366;2.072;2023-06-24T13:47:03;7.47;;;4.97;;
56039;SDS011;43937;41.366;2.072;2023-06-24T13:49:29;7.07;;;4.47;;
56039;SDS011;43937;41.366;2.072;2023-06-24T13:51:55;11.70;;;4.70;;
56039;SDS011;43937;41.366;2.072;2023-06-24T13:54:20;6.32;;;4.43;;
56039;SDS011;43937;41.366;2.072;2023-06-24T13:56:46;9.80;;;5.40;;
56039;SDS011;43937;41.366;2.072;2023-06-24T13:59:12;6.72;;;4.80;;
56039;SDS011;43937;41.366;2.072;2023-06-24T14:01:37;7.50;;;4.45;;
56039;SDS011;43937;41.366;2.072;2023-06-24T14:04:03;6.90;;;4.68;;
56039;SDS011;43937;41.366;2.072;2023-06-24T14:06:28;8.02;;;4.50;;
56039;SDS011;43937;41.366;2.072;2023-06-24T14:08:54;8.82;;;4.55;;
56039;SDS011;43937;41.366;2.072;2023-06-24T14:11:19;10.13;;;4.57;;
56039;SDS011;43937;41.366;2.072;2023-06-24T14:13:45;8.50;;;4.70;;
56039;SDS011;43937;41.366;2.072;2023-06-24T14:16:10;6.03;;;4.40;;
56039;SDS011;43937;41.366;2.072;2023-06-24T14:18:36;10.85;;;4.70;;
56039;SDS011;43937;41.366;2.072;2023-06-24T14:21:03;8.13;;;4.70;;
56039;SDS011;43937;41.366;2.072;2023-06-24T14:23:30;9.65;;;4.55;;
56039;SDS011;43937;41.366;2.072;2023-06-24T14:25:57;10.75;;;4.90;;
56039;SDS011;43937;41.366;2.072;2023-06-24T14:28:24;5.65;;;4.20;;
56039;SDS011;43937;41.366;2.072;2023-06-24T14:30:50;6.90;;;4.35;;
56039;SDS011;43937;41.366;2.072;2023-06-24T14:33:16;13.00;;;7.70;;
56039;SDS011;43937;41.366;2.072;2023-06-24T14:35:42;10.70;;;3.90;;
56039;SDS011;43937;41.366;2.072;2023-06-24T14:38:08;8.80;;;4.53;;
56039;SDS011;43937;41.366;2.072;2023-06-24T14:40:33;7.43;;;3.95;;
56039;SDS011;43937;41.366;2.072;2023-06-24T14:42:59;6.45;;;4.10;;
56039;SDS011;43937;41.366;2.072;2023-06-24T14:45:25;12.88;;;4.97;;
56039;SDS011;43937;41.366;2.072;2023-06-24T14:47:50;7.43;;;3.90;;
56039;SDS011;43937;41.366;2.072;2023-06-24T14:50:16;10.07;;;4.25;;
56039;SDS011;43937;41.366;2.072;2023-06-24T14:52:42;9.35;;;4.82;;
56039;SDS011;43937;41.366;2.072;2023-06-24T14:55:07;7.03;;;4.10;;
56039;SDS011;43937;41.366;2.072;2023-06-24T14:57:34;9.07;;;4.50;;
56039;SDS011;43937;41.366;2.072;2023-06-24T15:00:00;7.03;;;4.63;;
56039;SDS011;43937;41.366;2.072;2023-06-24T15:02:26;9.02;;;4.60;;
56039;SDS011;43937;41.366;2.072;2023-06-24T15:04:51;7.93;;;4.07;;
56039;SDS011;43937;41.366;2.072;2023-06-24T15:07:17;7.32;;;4.30;;